Time;durP1;ratioP1;P1;durP2;ratioP2;P2;SDS_P1;SDS_P2;PMS_P1;PMS_P2;Temp;Humidity;BMP_temperature;BMP_pressure;BME280_temperature;BME280_humidity;BME280_pressure;Samples;Min_cycle;Max_cycle;Signal;HPM_P1;HPM_P2
2021/12/31 00:00:22;;;;;;;18.83;3.95;;;13.00;99.90;;;;;;4987590;28;20037;-72
2021/12/31 00:02:48;;;;;;;9.73;3.10;;;12.70;99.90;;;;;;5004728;28;20103;-71
2021/12/31 00:05:13;;;;;;;10.85;3.40;;;12.80;99.90;;;;;;4975137;28;20041;-72
2021/12/31 00:07:39;;;;;;;15.10;4.10;;;13.00;99.90;;;;;;4986796;28;20843;-73
2021/12/31 00:10:06;;;;;;;16.95;3.85;;;13.00;99.90;;;;;;4999423;28;20473;-71
2021/12/31 00:12:33;;;;;;;7.93;3.20;;;13.00;99.90;;;;;;5019711;28;20038;-72
2021/12/31 00:14:58;;;;;;;14.65;3.97;;;12.90;99.90;;;;;;5019333;28;20147;-74
2021/12/31 00:17:24;;;;;;;14.50;3.67;;;13.00;99.90;;;;;;5019012;28;20941;-72
2021/12/31 00:19:59;;;;;;;16.20;3.38;;;12.80;99.90;;;;;;4991894;28;20049;-74
2021/12/31 00:24:52;;;;;;;19.20;3.72;;;12.60;99.90;;;;;;5024830;28;20514;-72
2021/12/31 00:27:18;;;;;;;16.20;3.92;;;12.80;99.90;;;;;;4992454;28;20128;-72
2021/12/31 00:29:44;;;;;;;10.95;2.80;;;12.90;99.90;;;;;;4992101;28;20120;-74
2021/12/31 00:32:10;;;;;;;15.40;2.90;;;12.60;99.90;;;;;;4992165;28;20034;-74
2021/12/31 00:34:36;;;;;;;12.30;3.00;;;12.50;99.90;;;;;;4991989;28;20030;-74
2021/12/31 00:37:01;;;;;;;16.27;3.60;;;12.60;99.90;;;;;;5025595;28;20104;-74
2021/12/31 00:39:27;;;;;;;12.77;3.47;;;12.50;99.90;;;;;;5024550;28;20049;-74
2021/12/31 00:41:53;;;;;;;11.30;3.55;;;12.80;99.90;;;;;;4992840;28;20060;-71
2021/12/31 00:44:20;;;;;;;11.82;3.20;;;12.70;99.90;;;;;;5025669;28;20052;-72
2021/12/31 00:46:47;;;;;;;14.10;3.25;;;12.50;99.90;;;;;;4992205;28;20509;-72
2021/12/31 00:49:14;;;;;;;14.10;3.97;;;12.60;99.90;;;;;;4991517;28;20124;-70
2021/12/31 00:51:40;;;;;;;14.10;3.67;;;12.70;99.90;;;;;;4991866;28;20038;-71
2021/12/31 00:54:06;;;;;;;14.13;3.58;;;12.50;99.90;;;;;;4990205;28;20037;-70
2021/12/31 00:56:31;;;;;;;14.05;4.22;;;12.50;99.90;;;;;;4992021;28;20033;-71
2021/12/31 00:58:57;;;;;;;12.27;3.60;;;12.50;99.90;;;;;;4991037;28;20057;-72
2021/12/31 01:01:25;;;;;;;14.52;3.50;;;12.50;99.90;;;;;;4992250;28;20770;-74
2021/12/31 01:03:51;;;;;;;16.27;3.38;;;12.60;99.90;;;;;;4989193;28;20054;-74
2021/12/31 01:06:16;;;;;;;17.02;3.20;;;12.70;99.90;;;;;;4990470;28;20526;-73
2021/12/31 01:08:42;;;;;;;14.85;3.95;;;12.60;99.90;;;;;;4971442;28;20050;-74
2021/12/31 01:11:08;;;;;;;10.35;3.13;;;12.60;99.90;;;;;;4989291;28;20116;-76
2021/12/31 01:13:47;;;;;;;17.23;4.13;;;12.50;99.90;;;;;;4987029;28;20405;-73
2021/12/31 01:16:14;;;;;;;17.40;4.30;;;12.40;99.90;;;;;;4990932;28;20049;-72
2021/12/31 01:21:20;;;;;;;16.17;3.60;;;12.60;99.90;;;;;;4991206;28;20381;-72
2021/12/31 01:23:47;;;;;;;12.52;3.25;;;12.40;99.90;;;;;;4991612;28;20052;-73
2021/12/31 01:26:13;;;;;;;11.10;3.20;;;12.50;99.90;;;;;;4989961;28;20037;-73
2021/12/31 01:28:38;;;;;;;15.27;3.33;;;12.50;99.90;;;;;;4991561;28;20117;-75
2021/12/31 01:31:04;;;;;;;11.43;3.10;;;12.60;99.90;;;;;;5006647;28;20121;-74
2021/12/31 01:33:30;;;;;;;13.65;3.53;;;12.50;99.90;;;;;;4988049;28;20052;-76
2021/12/31 01:35:56;;;;;;;13.63;3.22;;;12.40;99.90;;;;;;4976765;28;20076;-75
2021/12/31 01:38:22;;;;;;;19.38;3.92;;;12.60;99.90;;;;;;4960646;28;20030;-72
2021/12/31 01:40:49;;;;;;;14.00;3.58;;;12.40;99.90;;;;;;4991525;28;20060;-73
2021/12/31 01:43:17;;;;;;;11.52;2.92;;;12.60;99.90;;;;;;4992088;28;20069;-72
2021/12/31 01:45:45;;;;;;;17.25;3.90;;;12.30;99.90;;;;;;4974518;28;20534;-76
2021/12/31 01:48:23;;;;;;;12.45;3.15;;;12.40;99.90;;;;;;4980039;28;20200;-76
2021/12/31 01:50:49;;;;;;;10.88;3.00;;;12.30;99.90;;;;;;5011162;28;20470;-72
2021/12/31 01:53:16;;;;;;;14.65;3.30;;;12.30;99.90;;;;;;5010737;28;20134;-74
2021/12/31 01:55:43;;;;;;;18.42;3.20;;;12.50;99.90;;;;;;5010929;28;20049;-75
2021/12/31 01:58:09;;;;;;;12.65;3.40;;;12.50;99.90;;;;;;5012117;28;20037;-72
2021/12/31 02:00:36;;;;;;;10.05;3.17;;;12.30;99.90;;;;;;4996967;28;20041;-74
2021/12/31 02:03:05;;;;;;;13.90;3.47;;;12.40;99.90;;;;;;5009565;28;20076;-73
2021/12/31 02:05:31;;;;;;;12.68;2.88;;;12.40;99.90;;;;;;5010632;28;20529;-75
2021/12/31 02:07:58;;;;;;;13.63;3.33;;;12.50;99.90;;;;;;5011874;28;20044;-73
2021/12/31 02:10:24;;;;;;;19.05;3.05;;;12.50;99.90;;;;;;5009410;28;20049;-74
2021/12/31 02:12:52;;;;;;;14.60;3.85;;;12.60;99.90;;;;;;5011350;28;20413;-71
2021/12/31 02:15:19;;;;;;;12.80;3.22;;;12.50;99.90;;;;;;5007071;28;20037;-76
2021/12/31 02:17:47;;;;;;;11.98;3.75;;;12.40;99.90;;;;;;5010331;28;20041;-73
2021/12/31 02:20:14;;;;;;;11.32;3.15;;;12.40;99.90;;;;;;5011172;28;20045;-72
2021/12/31 02:22:53;;;;;;;15.18;3.50;;;12.50;99.90;;;;;;5014049;28;20179;-74
2021/12/31 02:25:21;;;;;;;14.05;3.05;;;12.60;99.90;;;;;;5014589;28;20037;-75
2021/12/31 02:27:47;;;;;;;14.15;4.00;;;12.50;99.90;;;;;;4998081;28;20053;-73
2021/12/31 02:30:14;;;;;;;17.10;3.67;;;12.60;99.90;;;;;;4997628;28;20389;-71
2021/12/31 02:32:40;;;;;;;11.18;3.53;;;12.50;99.90;;;;;;5013068;28;20120;-72
2021/12/31 02:35:08;;;;;;;14.75;3.58;;;12.60;99.90;;;;;;5014766;28;20167;-73
2021/12/31 02:37:34;;;;;;;11.45;3.13;;;12.50;99.90;;;;;;5012797;28;20082;-73
2021/12/31 02:40:06;;;;;;;12.65;4.47;;;12.70;99.90;;;;;;5014031;28;20462;-71
2021/12/31 02:42:32;;;;;;;11.68;3.70;;;12.60;99.90;;;;;;4995512;28;20076;-73
2021/12/31 02:44:58;;;;;;;8.45;3.38;;;12.60;99.90;;;;;;5014844;28;20162;-72
2021/12/31 02:47:24;;;;;;;15.95;3.70;;;12.70;99.90;;;;;;5014206;28;20060;-72
2021/12/31 02:49:50;;;;;;;9.07;3.45;;;12.60;99.90;;;;;;5013720;28;20053;-71
2021/12/31 02:52:17;;;;;;;13.07;3.45;;;12.80;99.90;;;;;;5013859;28;20046;-73
2021/12/31 02:54:46;;;;;;;9.40;3.22;;;12.70;99.90;;;;;;5014332;28;20107;-73
2021/12/31 02:57:13;;;;;;;11.93;3.42;;;12.80;99.90;;;;;;5013318;28;20859;-72
2021/12/31 02:59:40;;;;;;;13.57;3.25;;;12.80;99.90;;;;;;5012935;28;20449;-73
2021/12/31 03:02:07;;;;;;;9.63;3.28;;;12.90;99.90;;;;;;5011733;28;20128;-73
2021/12/31 03:04:38;;;;;;;14.15;3.03;;;12.90;99.90;;;;;;5010756;28;20041;-75
2021/12/31 03:07:05;;;;;;;9.95;2.92;;;12.90;99.90;;;;;;5011072;28;20037;-75
2021/12/31 03:09:33;;;;;;;9.07;3.45;;;12.80;99.90;;;;;;5011486;28;20191;-71
2021/12/31 03:12:00;;;;;;;10.55;3.30;;;12.80;99.90;;;;;;5013118;28;20029;-73
2021/12/31 03:14:28;;;;;;;10.95;2.97;;;12.80;99.90;;;;;;4978927;28;20044;-74
2021/12/31 03:16:53;;;;;;;12.52;3.17;;;12.90;99.90;;;;;;5012834;28;20116;-75
2021/12/31 03:19:20;;;;;;;9.90;3.13;;;12.80;99.90;;;;;;4995389;28;20330;-76
2021/12/31 03:21:46;;;;;;;9.40;3.13;;;12.90;99.90;;;;;;5012480;28;20042;-71
2021/12/31 03:24:13;;;;;;;13.38;3.15;;;12.90;99.90;;;;;;5012438;28;20048;-74
2021/12/31 03:26:38;;;;;;;11.05;3.38;;;12.80;99.90;;;;;;5009564;28;20044;-74
2021/12/31 03:29:04;;;;;;;9.25;3.00;;;12.90;99.90;;;;;;4978204;28;20038;-71
2021/12/31 03:31:31;;;;;;;7.63;2.85;;;12.90;99.90;;;;;;5011933;28;20275;-73
2021/12/31 03:33:56;;;;;;;8.82;2.78;;;13.00;99.90;;;;;;5011017;28;20037;-72
2021/12/31 03:36:22;;;;;;;8.73;3.50;;;13.00;99.90;;;;;;5009103;28;20036;-71
2021/12/31 03:38:48;;;;;;;8.70;2.75;;;12.90;99.90;;;;;;5011446;28;20073;-75
2021/12/31 03:41:14;;;;;;;8.45;3.08;;;12.90;99.90;;;;;;5013527;28;20052;-74
2021/12/31 03:43:39;;;;;;;8.45;3.28;;;13.00;99.90;;;;;;5012991;28;20045;-74
2021/12/31 03:46:07;;;;;;;11.38;3.58;;;12.90;99.90;;;;;;5012583;28;20052;-75
2021/12/31 03:48:32;;;;;;;7.10;3.08;;;13.00;99.90;;;;;;5016892;28;20498;-71
2021/12/31 03:50:58;;;;;;;10.63;3.38;;;13.00;99.90;;;;;;5015834;28;20061;-73
2021/12/31 03:53:24;;;;;;;10.27;3.53;;;12.90;99.90;;;;;;5023356;28;20037;-74
2021/12/31 03:55:50;;;;;;;13.68;3.83;;;12.90;99.90;;;;;;4995318;28;20095;-71
2021/12/31 03:58:15;;;;;;;9.00;3.17;;;12.80;99.90;;;;;;5016055;28;20570;-71
2021/12/31 04:00:41;;;;;;;9.18;2.78;;;12.80;99.90;;;;;;5015725;28;20049;-73
2021/12/31 04:03:09;;;;;;;9.80;3.60;;;12.80;99.90;;;;;;5015602;28;20059;-74
2021/12/31 04:05:40;;;;;;;8.40;3.03;;;12.80;99.90;;;;;;4999444;28;20037;-72
2021/12/31 04:08:06;;;;;;;9.27;3.00;;;12.90;99.90;;;;;;4996034;28;20045;-73
2021/12/31 04:10:32;;;;;;;9.27;2.70;;;12.90;99.90;;;;;;5011138;28;20034;-74
2021/12/31 04:12:58;;;;;;;8.93;2.50;;;12.80;99.90;;;;;;4963996;28;20494;-73
2021/12/31 04:15:24;;;;;;;7.68;2.25;;;12.80;99.90;;;;;;4996587;28;20045;-74
2021/12/31 04:17:50;;;;;;;8.18;2.60;;;12.80;99.90;;;;;;4995664;28;20048;-72
2021/12/31 04:20:32;;;;;;;7.25;2.92;;;12.80;99.90;;;;;;4994606;28;20055;-70
2021/12/31 04:22:59;;;;;;;7.93;2.38;;;12.80;99.90;;;;;;5010997;28;20092;-70
2021/12/31 04:25:24;;;;;;;5.88;2.50;;;12.90;99.90;;;;;;4994649;28;20129;-72
2021/12/31 04:27:51;;;;;;;10.52;2.50;;;12.80;99.90;;;;;;5025262;28;20049;-72
2021/12/31 04:30:17;;;;;;;9.02;2.58;;;12.90;99.90;;;;;;4994503;28;20049;-72
2021/12/31 04:32:43;;;;;;;10.43;2.95;;;12.90;99.90;;;;;;4993501;28;20662;-73
2021/12/31 04:35:11;;;;;;;7.68;2.53;;;12.90;99.90;;;;;;4991162;28;20120;-71
2021/12/31 04:37:39;;;;;;;7.82;2.63;;;12.90;99.90;;;;;;5004362;28;20045;-71
2021/12/31 04:40:08;;;;;;;7.93;3.35;;;12.90;99.90;;;;;;5022929;28;20041;-71
2021/12/31 04:42:33;;;;;;;6.82;2.60;;;12.90;99.90;;;;;;4996060;28;20033;-70
2021/12/31 04:44:59;;;;;;;7.82;2.92;;;13.00;99.90;;;;;;5010521;28;20522;-71
2021/12/31 04:47:25;;;;;;;8.18;3.13;;;13.00;99.90;;;;;;4978185;28;20048;-71
2021/12/31 04:49:50;;;;;;;9.15;2.95;;;13.00;99.90;;;;;;5011645;28;20053;-69
2021/12/31 04:52:16;;;;;;;5.60;2.30;;;13.00;99.90;;;;;;5010817;28;20061;-71
2021/12/31 04:54:42;;;;;;;8.70;3.05;;;13.10;99.90;;;;;;4995199;28;20045;-73
2021/12/31 04:57:07;;;;;;;8.63;3.13;;;13.00;99.90;;;;;;5008554;28;20060;-72
2021/12/31 04:59:33;;;;;;;6.82;2.42;;;13.10;99.90;;;;;;4990862;28;20037;-71
2021/12/31 05:01:59;;;;;;;7.05;2.47;;;13.10;99.90;;;;;;5006383;28;20029;-73
2021/12/31 05:04:25;;;;;;;7.85;2.40;;;13.10;99.90;;;;;;4996294;28;20046;-73
2021/12/31 05:06:51;;;;;;;9.07;2.60;;;13.10;99.90;;;;;;5008951;28;20076;-72
2021/12/31 05:09:17;;;;;;;9.38;2.40;;;13.10;99.90;;;;;;5008217;28;20047;-74
2021/12/31 05:11:43;;;;;;;4.88;2.28;;;13.10;99.90;;;;;;5008637;28;20052;-73
2021/12/31 05:14:09;;;;;;;5.72;2.20;;;13.00;99.90;;;;;;5010409;28;20072;-73
2021/12/31 05:16:35;;;;;;;8.20;2.92;;;13.00;99.90;;;;;;5011652;28;20064;-73
2021/12/31 05:19:03;;;;;;;8.93;2.63;;;12.90;99.90;;;;;;5011297;28;20441;-72
2021/12/31 05:21:29;;;;;;;5.80;2.28;;;12.90;99.90;;;;;;5011668;28;20045;-73
2021/12/31 05:23:56;;;;;;;7.43;2.70;;;12.90;99.90;;;;;;5009521;28;20433;-71
2021/12/31 05:26:22;;;;;;;7.90;2.80;;;13.00;99.90;;;;;;5005511;28;20038;-72
2021/12/31 05:28:47;;;;;;;6.13;2.75;;;12.90;99.90;;;;;;5009280;28;20053;-73
2021/12/31 05:31:13;;;;;;;8.32;3.20;;;12.90;99.90;;;;;;5005559;28;20045;-72
2021/12/31 05:33:39;;;;;;;6.43;2.63;;;12.80;99.90;;;;;;4971706;28;20043;-73
2021/12/31 05:36:04;;;;;;;3.90;2.30;;;12.80;99.90;;;;;;4999420;28;20389;-71
2021/12/31 05:38:30;;;;;;;4.97;2.88;;;12.80;99.90;;;;;;5009378;28;20103;-72
2021/12/31 05:40:56;;;;;;;7.53;2.97;;;12.80;99.90;;;;;;5011705;28;20140;-70
2021/12/31 05:43:21;;;;;;;6.82;2.90;;;12.70;99.90;;;;;;5010688;28;20078;-71
2021/12/31 05:45:47;;;;;;;6.57;3.28;;;12.70;99.90;;;;;;5009795;28;20329;-71
2021/12/31 05:48:13;;;;;;;7.45;2.92;;;12.80;99.90;;;;;;5011412;28;20053;-70
2021/12/31 05:50:38;;;;;;;5.30;3.13;;;12.80;99.90;;;;;;5010432;28;20042;-72
2021/12/31 05:53:04;;;;;;;5.32;3.35;;;12.70;99.90;;;;;;5011820;28;20033;-72
2021/12/31 05:55:30;;;;;;;5.95;3.38;;;12.80;99.90;;;;;;5008336;28;20057;-72
2021/12/31 05:57:56;;;;;;;5.00;3.05;;;12.80;99.90;;;;;;5005747;28;20457;-72
2021/12/31 06:00:23;;;;;;;5.95;3.97;;;12.80;99.90;;;;;;4994751;28;20029;-69
2021/12/31 06:02:49;;;;;;;7.00;3.50;;;12.80;99.90;;;;;;5011184;28;20048;-73
2021/12/31 06:05:15;;;;;;;8.10;3.25;;;12.90;99.90;;;;;;4997116;28;20034;-73
2021/12/31 06:07:41;;;;;;;4.68;3.30;;;12.90;99.90;;;;;;5012740;28;20697;-71
2021/12/31 06:10:07;;;;;;;8.68;3.55;;;13.00;99.90;;;;;;5014353;28;20037;-72
2021/12/31 06:12:37;;;;;;;9.00;3.40;;;12.90;99.90;;;;;;5010099;28;20041;-72
2021/12/31 06:15:07;;;;;;;6.63;3.30;;;13.00;99.90;;;;;;4997471;28;20071;-72
2021/12/31 06:17:33;;;;;;;7.63;3.78;;;12.90;99.90;;;;;;5015053;28;20033;-70
2021/12/31 06:19:59;;;;;;;7.10;3.22;;;13.00;99.90;;;;;;5013444;28;20053;-72
2021/12/31 06:22:25;;;;;;;5.68;3.10;;;13.00;99.90;;;;;;4996400;28;20037;-74
2021/12/31 06:24:51;;;;;;;6.28;3.25;;;13.00;99.90;;;;;;5013723;28;20045;-72
2021/12/31 06:27:18;;;;;;;5.15;3.35;;;13.00;99.90;;;;;;5012495;28;20128;-71
2021/12/31 06:29:44;;;;;;;6.82;3.30;;;13.00;99.90;;;;;;5014391;28;20048;-72
2021/12/31 06:32:10;;;;;;;6.70;3.08;;;13.00;99.90;;;;;;4995232;28;20037;-72
2021/12/31 06:34:36;;;;;;;6.38;3.42;;;12.90;99.90;;;;;;4981108;28;20219;-72
2021/12/31 06:37:02;;;;;;;5.88;3.15;;;13.00;99.90;;;;;;4993691;28;20132;-71
2021/12/31 06:39:28;;;;;;;4.50;2.78;;;12.90;99.90;;;;;;5013948;28;20052;-72
2021/12/31 06:41:54;;;;;;;7.95;3.50;;;12.90;99.90;;;;;;5014564;28;20043;-74
2021/12/31 06:44:20;;;;;;;7.63;2.92;;;13.00;99.90;;;;;;5011282;28;20559;-72
2021/12/31 06:46:46;;;;;;;6.00;3.05;;;12.90;99.90;;;;;;5011268;28;21529;-74
2021/12/31 06:49:12;;;;;;;9.38;3.88;;;12.90;99.90;;;;;;5014536;28;20180;-72
2021/12/31 06:51:38;;;;;;;4.82;2.67;;;12.90;99.90;;;;;;5012855;28;20127;-72
2021/12/31 06:54:03;;;;;;;6.95;3.22;;;12.90;99.90;;;;;;4995824;28;20045;-73
2021/12/31 06:56:30;;;;;;;5.80;3.22;;;12.90;99.90;;;;;;5013864;28;20592;-70
2021/12/31 06:58:55;;;;;;;4.57;2.70;;;12.90;99.90;;;;;;5014351;28;20048;-74
2021/12/31 07:01:21;;;;;;;6.38;2.90;;;12.90;99.90;;;;;;5010669;28;20394;-71
2021/12/31 07:03:47;;;;;;;6.88;2.97;;;12.90;99.90;;;;;;5014400;28;20045;-72
2021/12/31 07:06:13;;;;;;;4.78;2.50;;;12.80;99.90;;;;;;5013779;28;20052;-73
2021/12/31 07:08:39;;;;;;;6.32;2.92;;;12.80;99.90;;;;;;5014685;28;20394;-73
2021/12/31 07:11:05;;;;;;;3.60;2.30;;;12.90;99.90;;;;;;5018056;28;20037;-74
2021/12/31 07:13:31;;;;;;;7.10;2.85;;;12.80;99.90;;;;;;5013084;28;20038;-74
2021/12/31 07:15:56;;;;;;;3.75;2.45;;;12.80;99.90;;;;;;4999981;28;20030;-74
2021/12/31 07:18:23;;;;;;;3.92;2.50;;;12.80;99.90;;;;;;4999111;28;20065;-74
2021/12/31 07:20:50;;;;;;;3.42;2.50;;;12.90;99.90;;;;;;4999435;28;20050;-71
2021/12/31 07:23:18;;;;;;;4.15;2.60;;;12.90;99.90;;;;;;5015581;28;20536;-74
2021/12/31 07:25:44;;;;;;;4.30;2.70;;;12.80;99.90;;;;;;5015859;28;20055;-74
2021/12/31 07:28:12;;;;;;;5.80;2.60;;;12.80;99.90;;;;;;4978997;28;20171;-73
2021/12/31 07:30:39;;;;;;;7.07;2.40;;;12.90;99.90;;;;;;5014936;28;20034;-75
2021/12/31 07:33:04;;;;;;;7.05;2.53;;;12.70;99.90;;;;;;5014657;28;20034;-74
2021/12/31 07:35:31;;;;;;;3.85;2.25;;;12.80;99.90;;;;;;5006385;28;20100;-71
2021/12/31 07:37:58;;;;;;;5.88;2.58;;;12.80;99.90;;;;;;5029262;28;20087;-72
2021/12/31 07:40:27;;;;;;;3.55;2.38;;;12.80;99.90;;;;;;5014805;28;20525;-71
2021/12/31 07:42:53;;;;;;;4.57;2.78;;;12.80;99.90;;;;;;4999442;28;20068;-73
2021/12/31 07:45:20;;;;;;;5.15;2.30;;;12.70;99.90;;;;;;5014290;28;20037;-71
2021/12/31 07:47:46;;;;;;;3.60;2.53;;;12.70;99.90;;;;;;5012588;28;20041;-73
2021/12/31 07:50:12;;;;;;;5.93;2.50;;;12.60;99.90;;;;;;5012589;28;20049;-72
2021/12/31 07:52:38;;;;;;;6.75;2.50;;;12.60;99.90;;;;;;5013768;28;20104;-74
2021/12/31 07:55:04;;;;;;;7.80;3.05;;;12.60;99.90;;;;;;5012755;28;20421;-72
2021/12/31 07:57:30;;;;;;;2.78;2.30;;;12.60;99.90;;;;;;4998830;28;20566;-71
2021/12/31 07:59:56;;;;;;;3.65;2.10;;;12.60;99.90;;;;;;5014051;28;20120;-72
2021/12/31 08:02:21;;;;;;;5.35;2.58;;;12.60;99.90;;;;;;4998896;28;20084;-71
2021/12/31 08:04:47;;;;;;;4.65;2.40;;;12.70;99.90;;;;;;5014033;28;20045;-70
2021/12/31 08:07:13;;;;;;;5.15;2.35;;;12.70;99.90;;;;;;4995447;28;20041;-72
2021/12/31 08:09:38;;;;;;;3.80;2.65;;;12.60;99.90;;;;;;5013767;28;20119;-72
2021/12/31 08:12:05;;;;;;;4.07;2.80;;;12.60;99.90;;;;;;4998789;28;20029;-71
2021/12/31 08:14:30;;;;;;;5.13;2.78;;;12.70;99.90;;;;;;4998710;28;20045;-74
2021/12/31 08:16:56;;;;;;;3.85;2.60;;;12.70;99.90;;;;;;5012521;28;20044;-77
2021/12/31 08:19:22;;;;;;;4.57;2.30;;;12.70;99.90;;;;;;5012659;28;20079;-72
2021/12/31 08:21:47;;;;;;;7.70;2.63;;;12.60;99.90;;;;;;5014389;28;20037;-72
2021/12/31 08:24:13;;;;;;;4.68;2.50;;;12.70;99.90;;;;;;5014401;28;20041;-72
2021/12/31 08:26:39;;;;;;;5.70;2.53;;;12.60;99.90;;;;;;5029246;28;20048;-72
2021/12/31 08:29:05;;;;;;;4.85;3.00;;;12.70;99.90;;;;;;4994636;28;20072;-74
2021/12/31 08:31:31;;;;;;;7.18;3.10;;;12.70;99.90;;;;;;5012007;28;20032;-71
2021/12/31 08:33:57;;;;;;;4.32;2.63;;;12.70;99.90;;;;;;5012278;28;20045;-71
2021/12/31 08:36:23;;;;;;;4.85;2.65;;;12.70;99.90;;;;;;5013988;28;20033;-69
2021/12/31 08:38:48;;;;;;;4.07;2.30;;;12.80;99.90;;;;;;5010561;28;20068;-70
2021/12/31 08:41:14;;;;;;;6.30;2.88;;;12.70;99.90;;;;;;4996802;28;20478;-73
2021/12/31 08:43:40;;;;;;;4.55;2.47;;;12.70;99.90;;;;;;4995887;28;20072;-73
2021/12/31 08:46:05;;;;;;;4.07;2.58;;;12.80;99.90;;;;;;5012140;28;20124;-72
2021/12/31 08:48:31;;;;;;;8.50;3.17;;;12.80;99.90;;;;;;5011340;28;20091;-71
2021/12/31 08:50:57;;;;;;;4.05;2.72;;;12.80;99.90;;;;;;5000557;28;20628;-73
2021/12/31 08:53:22;;;;;;;3.45;2.20;;;12.80;99.90;;;;;;4993410;28;20041;-71
2021/12/31 08:55:48;;;;;;;5.03;2.83;;;12.90;99.90;;;;;;4990784;28;20048;-70
2021/12/31 08:58:14;;;;;;;5.07;2.72;;;12.80;99.90;;;;;;4976935;28;20034;-73
2021/12/31 09:00:40;;;;;;;3.55;2.85;;;12.80;99.90;;;;;;4980740;28;22100;-71
2021/12/31 09:03:06;;;;;;;5.45;2.50;;;12.80;99.90;;;;;;4976270;28;20096;-73
2021/12/31 09:05:33;;;;;;;4.32;2.67;;;12.80;99.90;;;;;;4997226;28;20038;-71
2021/12/31 09:07:58;;;;;;;5.95;3.10;;;12.80;99.90;;;;;;4997667;28;20482;-71
2021/12/31 09:10:24;;;;;;;7.30;3.13;;;12.80;99.90;;;;;;4999874;28;20096;-70
2021/12/31 09:12:50;;;;;;;5.15;3.30;;;12.90;99.90;;;;;;4976300;28;20042;-73
2021/12/31 09:15:16;;;;;;;8.25;2.95;;;12.80;99.90;;;;;;4992440;28;20088;-71
2021/12/31 09:17:42;;;;;;;6.22;3.45;;;12.80;99.90;;;;;;4999273;28;20061;-73
2021/12/31 09:20:08;;;;;;;5.95;3.35;;;12.80;99.90;;;;;;4973757;28;20041;-72
2021/12/31 09:22:34;;;;;;;5.95;2.97;;;12.80;99.90;;;;;;4991679;28;20088;-75
2021/12/31 09:24:59;;;;;;;5.43;2.88;;;12.70;99.90;;;;;;5004621;28;20041;-71
2021/12/31 09:27:26;;;;;;;5.57;2.70;;;12.80;99.90;;;;;;4991543;28;20042;-72
2021/12/31 09:29:52;;;;;;;5.25;3.00;;;12.80;99.90;;;;;;5006526;28;20050;-73
2021/12/31 09:32:17;;;;;;;6.90;3.15;;;12.80;99.90;;;;;;4973219;28;20030;-72
2021/12/31 09:34:44;;;;;;;7.47;3.35;;;12.70;99.90;;;;;;4978848;28;20048;-74
2021/12/31 09:37:11;;;;;;;6.03;3.40;;;12.70;99.90;;;;;;4996229;28;20118;-73
2021/12/31 09:39:37;;;;;;;4.35;3.15;;;12.70;99.90;;;;;;5025337;28;20166;-71
2021/12/31 09:42:05;;;;;;;6.82;3.00;;;12.70;99.90;;;;;;4985036;28;20476;-72
2021/12/31 09:44:35;;;;;;;5.00;3.40;;;12.70;99.90;;;;;;5003003;28;20046;-72
2021/12/31 09:47:07;;;;;;;5.40;3.17;;;12.70;99.90;;;;;;4982465;28;20108;-71
2021/12/31 09:49:35;;;;;;;5.93;3.08;;;12.80;99.90;;;;;;4983952;28;20113;-72
2021/12/31 09:52:02;;;;;;;6.38;3.60;;;12.70;99.90;;;;;;4992561;28;20045;-74
2021/12/31 09:54:28;;;;;;;8.40;3.75;;;12.70;99.90;;;;;;4993754;28;20111;-71
2021/12/31 09:56:54;;;;;;;5.93;3.15;;;12.70;99.90;;;;;;4994484;28;20046;-69
2021/12/31 09:59:21;;;;;;;6.03;4.03;;;12.70;99.90;;;;;;4995001;28;20083;-75
2021/12/31 10:01:49;;;;;;;5.88;3.25;;;12.80;99.90;;;;;;4975856;28;20060;-73
2021/12/31 10:04:15;;;;;;;5.32;3.10;;;12.70;99.90;;;;;;4995640;28;20037;-70
2021/12/31 10:07:06;;;;;;;5.78;3.30;;;12.70;99.90;;;;;;4992067;28;20060;-70
2021/12/31 10:09:35;;;;;;;7.15;3.40;;;12.70;99.90;;;;;;4995194;28;20045;-69
2021/12/31 10:12:01;;;;;;;5.30;3.28;;;12.60;99.90;;;;;;5009714;28;20053;-72
2021/12/31 10:14:37;;;;;;;6.65;3.30;;;12.60;99.90;;;;;;4992947;28;20062;-68
2021/12/31 10:17:05;;;;;;;6.30;3.50;;;12.60;99.90;;;;;;4991211;28;20544;-71
2021/12/31 10:19:31;;;;;;;6.22;3.35;;;12.50;99.90;;;;;;4977717;28;20034;-72
2021/12/31 10:21:57;;;;;;;8.50;3.67;;;12.60;99.90;;;;;;4996120;28;20129;-72
2021/12/31 10:24:26;;;;;;;6.35;3.75;;;12.60;99.90;;;;;;4993633;28;20486;-71
2021/12/31 10:26:59;;;;;;;6.97;3.78;;;12.50;99.90;;;;;;5007536;28;20038;-71
2021/12/31 10:29:27;;;;;;;9.18;3.97;;;12.60;99.90;;;;;;4992904;28;20405;-69
2021/12/31 10:31:54;;;;;;;9.15;4.88;;;12.50;99.90;;;;;;4992521;28;20042;-70
2021/12/31 10:34:31;;;;;;;7.70;3.50;;;12.70;99.90;;;;;;4976173;28;20042;-70
2021/12/31 10:37:03;;;;;;;5.65;3.28;;;12.60;99.90;;;;;;4995227;28;20401;-69
2021/12/31 10:39:37;;;;;;;6.78;3.25;;;12.60;99.90;;;;;;4993886;28;20033;-70
2021/12/31 10:42:04;;;;;;;6.90;3.42;;;12.70;99.90;;;;;;4990805;28;20081;-70
2021/12/31 10:44:45;;;;;;;5.93;3.30;;;12.60;99.90;;;;;;4989666;28;20041;-71
2021/12/31 10:47:13;;;;;;;8.70;3.65;;;12.60;99.90;;;;;;4992358;28;20084;-70
2021/12/31 10:50:04;;;;;;;7.38;3.67;;;12.50;99.90;;;;;;4991610;28;20505;-72
2021/12/31 10:52:55;;;;;;;6.90;3.83;;;12.50;99.90;;;;;;5008485;28;20093;-71
2021/12/31 10:55:29;;;;;;;7.80;4.50;;;12.50;99.90;;;;;;4997321;28;20048;-71
2021/12/31 10:58:01;;;;;;;4.97;3.88;;;12.50;99.90;;;;;;4993342;28;20033;-71
2021/12/31 11:00:30;;;;;;;6.25;4.05;;;12.50;99.90;;;;;;4992816;28;20054;-70
2021/12/31 11:02:56;;;;;;;7.13;4.15;;;12.40;99.90;;;;;;4993643;28;20048;-72
2021/12/31 11:05:23;;;;;;;6.90;3.95;;;12.40;99.90;;;;;;5010249;28;20033;-70
2021/12/31 11:07:50;;;;;;;7.45;3.80;;;12.40;99.90;;;;;;5010201;28;20041;-70
2021/12/31 11:10:18;;;;;;;6.88;3.95;;;12.40;99.90;;;;;;4996832;28;20393;-72
2021/12/31 11:12:48;;;;;;;6.60;3.97;;;12.50;99.90;;;;;;4985805;28;20038;-68
2021/12/31 11:15:15;;;;;;;7.40;4.40;;;12.50;99.90;;;;;;5003816;28;20033;-69
2021/12/31 11:17:41;;;;;;;7.32;3.75;;;12.50;99.90;;;;;;5006508;28;20058;-73
2021/12/31 11:20:08;;;;;;;7.30;3.85;;;12.60;99.90;;;;;;5003971;28;20504;-72
2021/12/31 11:22:34;;;;;;;8.18;4.40;;;12.50;99.90;;;;;;4982330;28;20050;-72
2021/12/31 11:25:26;;;;;;;9.35;4.20;;;12.50;99.90;;;;;;5004168;28;20119;-72
2021/12/31 11:27:54;;;;;;;8.32;4.30;;;12.40;99.90;;;;;;5000501;28;20096;-70
2021/12/31 11:30:38;;;;;;;9.10;4.18;;;12.50;99.90;;;;;;4993761;28;20046;-70
2021/12/31 11:33:24;;;;;;;7.47;4.25;;;12.50;99.90;;;;;;4978281;28;20053;-70
2021/12/31 11:36:00;;;;;;;7.28;4.40;;;12.60;99.90;;;;;;4994823;28;20034;-68
2021/12/31 11:38:26;;;;;;;8.18;4.47;;;12.60;99.90;;;;;;4992608;28;20553;-72
2021/12/31 11:41:02;;;;;;;6.65;4.10;;;12.60;99.90;;;;;;4994617;28;20129;-74
2021/12/31 11:43:30;;;;;;;12.55;5.53;;;12.60;99.90;;;;;;4992034;28;20041;-70
2021/12/31 11:46:11;;;;;;;7.20;4.40;;;12.70;99.90;;;;;;4993903;28;20044;-73
2021/12/31 11:48:49;;;;;;;8.90;4.75;;;12.60;99.90;;;;;;4991726;28;20046;-72
2021/12/31 11:51:38;;;;;;;5.50;4.25;;;12.50;99.90;;;;;;5005358;28;20057;-71
2021/12/31 11:54:07;;;;;;;5.93;4.30;;;12.70;99.90;;;;;;5030764;28;20107;-69
2021/12/31 11:56:49;;;;;;;8.32;4.65;;;12.50;99.90;;;;;;5014855;28;20405;-74
2021/12/31 11:59:19;;;;;;;10.13;4.75;;;12.60;99.90;;;;;;5031227;28;20068;-70
2021/12/31 12:01:51;;;;;;;7.63;5.00;;;12.50;99.90;;;;;;5014607;28;20029;-70
2021/12/31 12:04:35;;;;;;;10.27;4.60;;;12.50;99.90;;;;;;5013692;28;20072;-73
2021/12/31 12:07:33;;;;;;;8.70;4.57;;;12.50;99.90;;;;;;5009186;28;20042;-71
2021/12/31 12:09:58;;;;;;;5.95;4.07;;;12.80;99.90;;;;;;5000828;28;20057;-71
2021/12/31 12:12:26;;;;;;;6.65;4.55;;;12.90;99.90;;;;;;5012752;28;20048;-71
2021/12/31 12:15:00;;;;;;;8.75;5.45;;;12.80;99.90;;;;;;5015057;28;20048;-72
2021/12/31 12:17:29;;;;;;;7.00;4.65;;;12.60;99.90;;;;;;5013054;28;20424;-72
2021/12/31 12:19:57;;;;;;;7.68;4.78;;;12.70;99.90;;;;;;5013506;28;20098;-72
2021/12/31 12:22:33;;;;;;;7.55;4.70;;;12.90;99.90;;;;;;5021267;28;20505;-73
2021/12/31 12:25:10;;;;;;;4.88;4.20;;;13.00;99.90;;;;;;5012958;28;20506;-71
2021/12/31 12:27:38;;;;;;;6.75;4.10;;;12.60;99.90;;;;;;5023011;28;20120;-72
2021/12/31 12:30:07;;;;;;;6.55;4.07;;;12.70;99.90;;;;;;5010508;28;20124;-71
2021/12/31 12:32:37;;;;;;;6.47;4.05;;;12.70;99.90;;;;;;5011512;28;20041;-73
2021/12/31 12:35:26;;;;;;;10.82;4.90;;;12.70;99.90;;;;;;5010309;28;20072;-71
2021/12/31 12:38:26;;;;;;;8.32;6.00;;;12.90;99.90;;;;;;5008064;28;20030;-74
2021/12/31 12:40:57;;;;;;;6.85;4.50;;;13.10;99.90;;;;;;4993370;28;20072;-72
2021/12/31 12:43:26;;;;;;;5.57;3.90;;;13.30;99.90;;;;;;5011271;28;20068;-72
2021/12/31 12:46:07;;;;;;;7.35;4.85;;;12.80;99.90;;;;;;5011753;28;20051;-71
2021/12/31 12:48:49;;;;;;;6.22;4.32;;;13.20;99.90;;;;;;5007056;28;20045;-73
2021/12/31 12:51:30;;;;;;;6.18;4.85;;;13.20;99.90;;;;;;5009597;28;20068;-70